sensor_id;sensor_type;location;lat;lon;timestamp;P1;durP1;ratioP1;P2;durP2;ratioP2
48871;SDS011;36154;51.674;7.824;2022-10-16T00:00:32;0.00;;;0.00;;
48871;SDS011;36154;51.674;7.824;2022-10-16T00:02:58;0.00;;;0.00;;
48871;SDS011;36154;51.674;7.824;2022-10-16T00:05:23;0.10;;;0.10;;
48871;SDS011;36154;51.674;7.824;2022-10-16T00:07:49;0.00;;;0.00;;
48871;SDS011;36154;51.674;7.824;2022-10-16T00:10:14;0.10;;;0.10;;
48871;SDS011;36154;51.674;7.824;2022-10-16T00:12:39;0.05;;;0.00;;
48871;SDS011;36154;51.674;7.824;2022-10-16T00:15:05;0.00;;;0.00;;
48871;SDS011;36154;51.674;7.824;2022-10-16T00:17:30;0.05;;;0.05;;
48871;SDS011;36154;51.674;7.824;2022-10-16T00:19:56;0.75;;;0.05;;
48871;SDS011;36154;51.674;7.824;2022-10-16T00:22:21;0.10;;;0.10;;
48871;SDS011;36154;51.674;7.824;2022-10-16T00:24:47;0.20;;;0.10;;
48871;SDS011;36154;51.674;7.824;2022-10-16T00:27:12;0.00;;;0.00;;
48871;SDS011;36154;51.674;7.824;2022-10-16T00:29:37;0.10;;;0.10;;
48871;SDS011;36154;51.674;7.824;2022-10-16T00:32:03;0.00;;;0.00;;
48871;SDS011;36154;51.674;7.824;2022-10-16T00:34:28;0.08;;;0.05;;
48871;SDS011;36154;51.674;7.824;2022-10-16T00:36:53;0.00;;;0.00;;
48871;SDS011;36154;51.674;7.824;2022-10-16T00:39:19;0.30;;;0.10;;
48871;SDS011;36154;51.674;7.824;2022-10-16T00:41:44;0.00;;;0.00;;
48871;SDS011;36154;51.674;7.824;2022-10-16T00:47:21;0.00;;;0.00;;
48871;SDS011;36154;51.674;7.824;2022-10-16T00:49:50;0.35;;;0.10;;
48871;SDS011;36154;51.674;7.824;2022-10-16T00:52:18;0.08;;;0.08;;
48871;SDS011;36154;51.674;7.824;2022-10-16T00:54:44;0.10;;;0.10;;
48871;SDS011;36154;51.674;7.824;2022-10-16T00:57:12;0.10;;;0.10;;
48871;SDS011;36154;51.674;7.824;2022-10-16T00:59:38;0.15;;;0.10;;
48871;SDS011;36154;51.674;7.824;2022-10-16T01:02:05;0.10;;;0.10;;
48871;SDS011;36154;51.674;7.824;2022-10-16T01:04:42;0.10;;;0.10;;
48871;SDS011;36154;51.674;7.824;2022-10-16T01:12:33;0.15;;;0.10;;
48871;SDS011;36154;51.674;7.824;2022-10-16T01:15:17;0.10;;;0.10;;
48871;SDS011;36154;51.674;7.824;2022-10-16T01:20:36;0.20;;;0.20;;
48871;SDS011;36154;51.674;7.824;2022-10-16T01:31:34;0.05;;;0.05;;
48871;SDS011;36154;51.674;7.824;2022-10-16T01:34:05;0.10;;;0.10;;
48871;SDS011;36154;51.674;7.824;2022-10-16T01:36:38;0.10;;;0.10;;
48871;SDS011;36154;51.674;7.824;2022-10-16T01:39:09;0.10;;;0.10;;
48871;SDS011;36154;51.674;7.824;2022-10-16T01:41:40;0.10;;;0.10;;
48871;SDS011;36154;51.674;7.824;2022-10-16T01:44:09;0.10;;;0.10;;
48871;SDS011;36154;51.674;7.824;2022-10-16T01:46:39;0.00;;;0.00;;
48871;SDS011;36154;51.674;7.824;2022-10-16T01:49:07;0.10;;;0.10;;
48871;SDS011;36154;51.674;7.824;2022-10-16T01:51:35;0.10;;;0.10;;
48871;SDS011;36154;51.674;7.824;2022-10-16T01:54:02;0.10;;;0.10;;
48871;SDS011;36154;51.674;7.824;2022-10-16T01:56:30;0.10;;;0.10;;
48871;SDS011;36154;51.674;7.824;2022-10-16T01:58:58;0.10;;;0.10;;
48871;SDS011;36154;51.674;7.824;2022-10-16T02:01:30;0.20;;;0.20;;
48871;SDS011;36154;51.674;7.824;2022-10-16T02:03:59;0.10;;;0.10;;
48871;SDS011;36154;51.674;7.824;2022-10-16T02:06:29;0.10;;;0.10;;
48871;SDS011;36154;51.674;7.824;2022-10-16T02:08:55;0.10;;;0.10;;
48871;SDS011;36154;51.674;7.824;2022-10-16T02:11:20;0.03;;;0.03;;
48871;SDS011;36154;51.674;7.824;2022-10-16T02:13:56;0.00;;;0.00;;
48871;SDS011;36154;51.674;7.824;2022-10-16T02:16:32;0.10;;;0.10;;
48871;SDS011;36154;51.674;7.824;2022-10-16T02:19:02;0.20;;;0.20;;
48871;SDS011;36154;51.674;7.824;2022-10-16T02:21:30;0.03;;;0.03;;
48871;SDS011;36154;51.674;7.824;2022-10-16T02:24:11;0.55;;;0.20;;
48871;SDS011;36154;51.674;7.824;2022-10-16T02:26:48;0.10;;;0.10;;
48871;SDS011;36154;51.674;7.824;2022-10-16T02:29:21;0.03;;;0.03;;
48871;SDS011;36154;51.674;7.824;2022-10-16T02:31:50;0.10;;;0.10;;
48871;SDS011;36154;51.674;7.824;2022-10-16T02:34:24;0.10;;;0.10;;
48871;SDS011;36154;51.674;7.824;2022-10-16T02:36:52;0.47;;;0.20;;
48871;SDS011;36154;51.674;7.824;2022-10-16T02:39:18;0.00;;;0.00;;
48871;SDS011;36154;51.674;7.824;2022-10-16T02:41:45;0.10;;;0.10;;
48871;SDS011;36154;51.674;7.824;2022-10-16T02:44:10;1.13;;;0.20;;
48871;SDS011;36154;51.674;7.824;2022-10-16T02:46:36;0.10;;;0.10;;
48871;SDS011;36154;51.674;7.824;2022-10-16T02:49:01;0.15;;;0.10;;
48871;SDS011;36154;51.674;7.824;2022-10-16T02:51:26;0.20;;;0.10;;
48871;SDS011;36154;51.674;7.824;2022-10-16T02:53:51;0.10;;;0.10;;
48871;SDS011;36154;51.674;7.824;2022-10-16T02:56:17;0.20;;;0.20;;
48871;SDS011;36154;51.674;7.824;2022-10-16T02:58:42;0.10;;;0.10;;
48871;SDS011;36154;51.674;7.824;2022-10-16T03:01:07;0.20;;;0.20;;
48871;SDS011;36154;51.674;7.824;2022-10-16T03:03:32;0.10;;;0.10;;
48871;SDS011;36154;51.674;7.824;2022-10-16T03:05:58;0.20;;;0.20;;
48871;SDS011;36154;51.674;7.824;2022-10-16T03:08:23;0.10;;;0.10;;
48871;SDS011;36154;51.674;7.824;2022-10-16T03:10:50;0.10;;;0.10;;
48871;SDS011;36154;51.674;7.824;2022-10-16T03:13:16;0.10;;;0.10;;
48871;SDS011;36154;51.674;7.824;2022-10-16T03:15:41;0.10;;;0.10;;
48871;SDS011;36154;51.674;7.824;2022-10-16T03:18:07;0.10;;;0.10;;
48871;SDS011;36154;51.674;7.824;2022-10-16T03:20:32;0.10;;;0.10;;
48871;SDS011;36154;51.674;7.824;2022-10-16T03:22:58;0.10;;;0.10;;
48871;SDS011;36154;51.674;7.824;2022-10-16T03:25:23;0.20;;;0.20;;
48871;SDS011;36154;51.674;7.824;2022-10-16T03:27:48;0.15;;;0.15;;
48871;SDS011;36154;51.674;7.824;2022-10-16T03:30:14;0.15;;;0.15;;
48871;SDS011;36154;51.674;7.824;2022-10-16T03:32:40;0.10;;;0.10;;
48871;SDS011;36154;51.674;7.824;2022-10-16T03:35:05;0.10;;;0.10;;
48871;SDS011;36154;51.674;7.824;2022-10-16T03:37:31;0.10;;;0.10;;
48871;SDS011;36154;51.674;7.824;2022-10-16T03:39:56;0.30;;;0.20;;
48871;SDS011;36154;51.674;7.824;2022-10-16T03:42:21;0.47;;;0.20;;
48871;SDS011;36154;51.674;7.824;2022-10-16T03:44:46;0.10;;;0.10;;
48871;SDS011;36154;51.674;7.824;2022-10-16T03:47:12;0.10;;;0.10;;
48871;SDS011;36154;51.674;7.824;2022-10-16T03:49:37;0.10;;;0.10;;
48871;SDS011;36154;51.674;7.824;2022-10-16T03:52:02;0.10;;;0.10;;
48871;SDS011;36154;51.674;7.824;2022-10-16T03:54:28;0.30;;;0.28;;
48871;SDS011;36154;51.674;7.824;2022-10-16T03:56:54;0.10;;;0.10;;
48871;SDS011;36154;51.674;7.824;2022-10-16T03:59:19;0.25;;;0.20;;
48871;SDS011;36154;51.674;7.824;2022-10-16T04:01:44;0.20;;;0.20;;
48871;SDS011;36154;51.674;7.824;2022-10-16T04:04:09;0.15;;;0.15;;
48871;SDS011;36154;51.674;7.824;2022-10-16T04:06:35;0.20;;;0.20;;
48871;SDS011;36154;51.674;7.824;2022-10-16T04:09:00;0.10;;;0.10;;
48871;SDS011;36154;51.674;7.824;2022-10-16T04:11:26;0.15;;;0.10;;
48871;SDS011;36154;51.674;7.824;2022-10-16T04:13:51;0.20;;;0.20;;
48871;SDS011;36154;51.674;7.824;2022-10-16T04:16:16;0.17;;;0.17;;
48871;SDS011;36154;51.674;7.824;2022-10-16T04:18:42;0.35;;;0.20;;
48871;SDS011;36154;51.674;7.824;2022-10-16T04:21:07;0.10;;;0.10;;
48871;SDS011;36154;51.674;7.824;2022-10-16T04:23:33;0.30;;;0.30;;
48871;SDS011;36154;51.674;7.824;2022-10-16T04:25:58;0.10;;;0.10;;
48871;SDS011;36154;51.674;7.824;2022-10-16T04:28:24;0.10;;;0.10;;
48871;SDS011;36154;51.674;7.824;2022-10-16T04:30:49;0.20;;;0.17;;
48871;SDS011;36154;51.674;7.824;2022-10-16T04:33:14;0.47;;;0.20;;
48871;SDS011;36154;51.674;7.824;2022-10-16T04:35:40;0.20;;;0.20;;
48871;SDS011;36154;51.674;7.824;2022-10-16T04:38:05;0.20;;;0.20;;
48871;SDS011;36154;51.674;7.824;2022-10-16T04:40:30;0.20;;;0.20;;
48871;SDS011;36154;51.674;7.824;2022-10-16T04:43:00;0.10;;;0.10;;
48871;SDS011;36154;51.674;7.824;2022-10-16T04:45:26;0.20;;;0.17;;
48871;SDS011;36154;51.674;7.824;2022-10-16T04:47:51;0.10;;;0.10;;
48871;SDS011;36154;51.674;7.824;2022-10-16T04:50:16;0.20;;;0.20;;
48871;SDS011;36154;51.674;7.824;2022-10-16T04:52:42;0.10;;;0.10;;
48871;SDS011;36154;51.674;7.824;2022-10-16T04:55:07;0.10;;;0.10;;
48871;SDS011;36154;51.674;7.824;2022-10-16T04:57:32;0.10;;;0.10;;
48871;SDS011;36154;51.674;7.824;2022-10-16T04:59:58;0.20;;;0.20;;
48871;SDS011;36154;51.674;7.824;2022-10-16T05:02:24;0.10;;;0.10;;
48871;SDS011;36154;51.674;7.824;2022-10-16T05:04:50;0.10;;;0.10;;
48871;SDS011;36154;51.674;7.824;2022-10-16T05:07:15;0.13;;;0.13;;
48871;SDS011;36154;51.674;7.824;2022-10-16T05:09:41;0.10;;;0.10;;
48871;SDS011;36154;51.674;7.824;2022-10-16T05:12:06;0.25;;;0.25;;
48871;SDS011;36154;51.674;7.824;2022-10-16T05:14:31;0.13;;;0.13;;
48871;SDS011;36154;51.674;7.824;2022-10-16T05:16:57;0.50;;;0.10;;
48871;SDS011;36154;51.674;7.824;2022-10-16T05:19:22;0.15;;;0.15;;
48871;SDS011;36154;51.674;7.824;2022-10-16T05:21:47;0.20;;;0.20;;
48871;SDS011;36154;51.674;7.824;2022-10-16T05:24:12;0.10;;;0.10;;
48871;SDS011;36154;51.674;7.824;2022-10-16T05:26:38;0.10;;;0.10;;
48871;SDS011;36154;51.674;7.824;2022-10-16T05:29:03;0.20;;;0.20;;
48871;SDS011;36154;51.674;7.824;2022-10-16T05:31:28;0.10;;;0.10;;
48871;SDS011;36154;51.674;7.824;2022-10-16T05:34:00;0.15;;;0.15;;
48871;SDS011;36154;51.674;7.824;2022-10-16T05:36:26;0.10;;;0.10;;
48871;SDS011;36154;51.674;7.824;2022-10-16T05:38:51;0.10;;;0.10;;
48871;SDS011;36154;51.674;7.824;2022-10-16T05:41:17;0.20;;;0.20;;
48871;SDS011;36154;51.674;7.824;2022-10-16T05:43:46;0.20;;;0.20;;
48871;SDS011;36154;51.674;7.824;2022-10-16T05:46:12;0.20;;;0.20;;
48871;SDS011;36154;51.674;7.824;2022-10-16T05:48:38;0.20;;;0.20;;
48871;SDS011;36154;51.674;7.824;2022-10-16T05:51:04;0.20;;;0.20;;
48871;SDS011;36154;51.674;7.824;2022-10-16T05:53:35;0.10;;;0.10;;
48871;SDS011;36154;51.674;7.824;2022-10-16T05:56:02;0.15;;;0.15;;
48871;SDS011;36154;51.674;7.824;2022-10-16T05:58:28;0.75;;;0.20;;
48871;SDS011;36154;51.674;7.824;2022-10-16T06:00:59;0.13;;;0.13;;
48871;SDS011;36154;51.674;7.824;2022-10-16T06:03:26;0.20;;;0.20;;
48871;SDS011;36154;51.674;7.824;2022-10-16T06:05:51;1.27;;;0.20;;
48871;SDS011;36154;51.674;7.824;2022-10-16T06:08:18;0.28;;;0.28;;
48871;SDS011;36154;51.674;7.824;2022-10-16T06:10:44;0.13;;;0.13;;
48871;SDS011;36154;51.674;7.824;2022-10-16T06:13:10;0.13;;;0.13;;
48871;SDS011;36154;51.674;7.824;2022-10-16T06:15:37;0.10;;;0.10;;
48871;SDS011;36154;51.674;7.824;2022-10-16T06:18:04;0.20;;;0.20;;
48871;SDS011;36154;51.674;7.824;2022-10-16T06:20:29;0.20;;;0.20;;
48871;SDS011;36154;51.674;7.824;2022-10-16T06:22:55;0.20;;;0.20;;
48871;SDS011;36154;51.674;7.824;2022-10-16T06:25:20;0.10;;;0.10;;
48871;SDS011;36154;51.674;7.824;2022-10-16T06:27:45;0.20;;;0.20;;
48871;SDS011;36154;51.674;7.824;2022-10-16T06:30:10;1.85;;;0.20;;
48871;SDS011;36154;51.674;7.824;2022-10-16T06:32:36;0.10;;;0.10;;
48871;SDS011;36154;51.674;7.824;2022-10-16T06:35:01;0.20;;;0.20;;
48871;SDS011;36154;51.674;7.824;2022-10-16T06:37:26;0.10;;;0.10;;
48871;SDS011;36154;51.674;7.824;2022-10-16T06:39:52;1.38;;;0.20;;
48871;SDS011;36154;51.674;7.824;2022-10-16T06:42:17;0.20;;;0.20;;
48871;SDS011;36154;51.674;7.824;2022-10-16T06:44:42;0.20;;;0.20;;
48871;SDS011;36154;51.674;7.824;2022-10-16T06:47:08;0.20;;;0.20;;
48871;SDS011;36154;51.674;7.824;2022-10-16T06:49:33;0.77;;;0.20;;
48871;SDS011;36154;51.674;7.824;2022-10-16T06:51:58;0.10;;;0.10;;
48871;SDS011;36154;51.674;7.824;2022-10-16T06:54:23;0.20;;;0.20;;
48871;SDS011;36154;51.674;7.824;2022-10-16T06:56:49;0.20;;;0.20;;
48871;SDS011;36154;51.674;7.824;2022-10-16T06:59:16;0.10;;;0.10;;
48871;SDS011;36154;51.674;7.824;2022-10-16T07:01:41;0.20;;;0.20;;
48871;SDS011;36154;51.674;7.824;2022-10-16T07:04:07;0.88;;;0.10;;
48871;SDS011;36154;51.674;7.824;2022-10-16T07:06:32;0.28;;;0.10;;
48871;SDS011;36154;51.674;7.824;2022-10-16T07:09:00;0.20;;;0.10;;
48871;SDS011;36154;51.674;7.824;2022-10-16T07:11:27;0.20;;;0.20;;
48871;SDS011;36154;51.674;7.824;2022-10-16T07:13:53;0.20;;;0.20;;
48871;SDS011;36154;51.674;7.824;2022-10-16T07:16:19;0.20;;;0.20;;
48871;SDS011;36154;51.674;7.824;2022-10-16T07:18:46;0.10;;;0.10;;
48871;SDS011;36154;51.674;7.824;2022-10-16T07:21:14;0.52;;;0.20;;
48871;SDS011;36154;51.674;7.824;2022-10-16T07:23:41;1.20;;;0.20;;
48871;SDS011;36154;51.674;7.824;2022-10-16T07:26:07;0.10;;;0.10;;
48871;SDS011;36154;51.674;7.824;2022-10-16T07:28:33;0.10;;;0.10;;
48871;SDS011;36154;51.674;7.824;2022-10-16T07:31:02;0.10;;;0.10;;
48871;SDS011;36154;51.674;7.824;2022-10-16T07:33:29;0.28;;;0.20;;
48871;SDS011;36154;51.674;7.824;2022-10-16T07:35:55;0.10;;;0.10;;
48871;SDS011;36154;51.674;7.824;2022-10-16T07:38:20;0.10;;;0.10;;
48871;SDS011;36154;51.674;7.824;2022-10-16T07:40:46;0.10;;;0.10;;
48871;SDS011;36154;51.674;7.824;2022-10-16T07:43:12;0.10;;;0.10;;
48871;SDS011;36154;51.674;7.824;2022-10-16T07:45:45;0.28;;;0.10;;
48871;SDS011;36154;51.674;7.824;2022-10-16T07:48:12;0.10;;;0.10;;
48871;SDS011;36154;51.674;7.824;2022-10-16T07:50:37;0.10;;;0.10;;
48871;SDS011;36154;51.674;7.824;2022-10-16T07:53:03;0.10;;;0.10;;
48871;SDS011;36154;51.674;7.824;2022-10-16T07:55:28;0.10;;;0.10;;
48871;SDS011;36154;51.674;7.824;2022-10-16T07:57:54;0.20;;;0.20;;
48871;SDS011;36154;51.674;7.824;2022-10-16T08:00:19;0.10;;;0.10;;
48871;SDS011;36154;51.674;7.824;2022-10-16T08:02:45;0.10;;;0.10;;
48871;SDS011;36154;51.674;7.824;2022-10-16T08:05:10;0.40;;;0.40;;
48871;SDS011;36154;51.674;7.824;2022-10-16T08:07:36;0.20;;;0.20;;
48871;SDS011;36154;51.674;7.824;2022-10-16T08:10:01;0.10;;;0.10;;
48871;SDS011;36154;51.674;7.824;2022-10-16T08:12:26;0.10;;;0.10;;
48871;SDS011;36154;51.674;7.824;2022-10-16T08:14:52;0.10;;;0.10;;
48871;SDS011;36154;51.674;7.824;2022-10-16T08:17:17;0.10;;;0.10;;
48871;SDS011;36154;51.674;7.824;2022-10-16T08:19:45;0.10;;;0.10;;
48871;SDS011;36154;51.674;7.824;2022-10-16T08:22:12;1.85;;;0.15;;
48871;SDS011;36154;51.674;7.824;2022-10-16T08:24:38;0.10;;;0.10;;
48871;SDS011;36154;51.674;7.824;2022-10-16T08:27:04;0.50;;;0.10;;
48871;SDS011;36154;51.674;7.824;2022-10-16T08:29:29;0.17;;;0.17;;
48871;SDS011;36154;51.674;7.824;2022-10-16T08:31:54;0.20;;;0.20;;
48871;SDS011;36154;51.674;7.824;2022-10-16T08:34:20;0.10;;;0.10;;
48871;SDS011;36154;51.674;7.824;2022-10-16T08:36:45;0.10;;;0.10;;
48871;SDS011;36154;51.674;7.824;2022-10-16T08:39:10;0.30;;;0.20;;
48871;SDS011;36154;51.674;7.824;2022-10-16T08:49:16;0.10;;;0.10;;
48871;SDS011;36154;51.674;7.824;2022-10-16T08:51:42;0.10;;;0.10;;
48871;SDS011;36154;51.674;7.824;2022-10-16T08:56:54;0.20;;;0.10;;
48871;SDS011;36154;51.674;7.824;2022-10-16T08:59:20;0.10;;;0.10;;
48871;SDS011;36154;51.674;7.824;2022-10-16T09:01:46;0.10;;;0.10;;
48871;SDS011;36154;51.674;7.824;2022-10-16T09:07:19;0.10;;;0.10;;
48871;SDS011;36154;51.674;7.824;2022-10-16T09:12:42;0.82;;;0.10;;
48871;SDS011;36154;51.674;7.824;2022-10-16T09:15:34;0.80;;;0.20;;
48871;SDS011;36154;51.674;7.824;2022-10-16T09:18:20;2.40;;;0.20;;
48871;SDS011;36154;51.674;7.824;2022-10-16T09:20:59;0.10;;;0.10;;
48871;SDS011;36154;51.674;7.824;2022-10-16T09:23:30;0.10;;;0.10;;
48871;SDS011;36154;51.674;7.824;2022-10-16T09:25:59;0.10;;;0.10;;
48871;SDS011;36154;51.674;7.824;2022-10-16T09:28:25;0.10;;;0.10;;
48871;SDS011;36154;51.674;7.824;2022-10-16T09:30:50;0.10;;;0.10;;
48871;SDS011;36154;51.674;7.824;2022-10-16T09:33:17;0.13;;;0.13;;
48871;SDS011;36154;51.674;7.824;2022-10-16T09:35:51;0.10;;;0.10;;
48871;SDS011;36154;51.674;7.824;2022-10-16T09:39:00;0.30;;;0.10;;
48871;SDS011;36154;51.674;7.824;2022-10-16T09:43:56;1.27;;;0.03;;
48871;SDS011;36154;51.674;7.824;2022-10-16T09:46:31;0.10;;;0.10;;
48871;SDS011;36154;51.674;7.824;2022-10-16T09:49:02;0.00;;;0.00;;
48871;SDS011;36154;51.674;7.824;2022-10-16T09:56:31;0.10;;;0.10;;
48871;SDS011;36154;51.674;7.824;2022-10-16T09:58:59;0.20;;;0.10;;
48871;SDS011;36154;51.674;7.824;2022-10-16T10:01:47;0.20;;;0.10;;
48871;SDS011;36154;51.674;7.824;2022-10-16T10:04:15;0.00;;;0.00;;
48871;SDS011;36154;51.674;7.824;2022-10-16T10:09:25;0.30;;;0.10;;
48871;SDS011;36154;51.674;7.824;2022-10-16T10:14:30;0.10;;;0.10;;
48871;SDS011;36154;51.674;7.824;2022-10-16T10:19:46;0.80;;;0.30;;
48871;SDS011;36154;51.674;7.824;2022-10-16T10:22:13;2.08;;;0.10;;
48871;SDS011;36154;51.674;7.824;2022-10-16T10:25:01;0.10;;;0.10;;
48871;SDS011;36154;51.674;7.824;2022-10-16T10:35:34;0.10;;;0.10;;
48871;SDS011;36154;51.674;7.824;2022-10-16T10:41:08;1.88;;;0.20;;
48871;SDS011;36154;51.674;7.824;2022-10-16T10:49:18;0.20;;;0.10;;
48871;SDS011;36154;51.674;7.824;2022-10-16T10:52:23;0.10;;;0.10;;
48871;SDS011;36154;51.674;7.824;2022-10-16T11:08:27;3.95;;;0.15;;
48871;SDS011;36154;51.674;7.824;2022-10-16T11:11:09;0.45;;;0.10;;
48871;SDS011;36154;51.674;7.824;2022-10-16T11:13:58;0.13;;;0.13;;
48871;SDS011;36154;51.674;7.824;2022-10-16T11:17:29;0.10;;;0.10;;
48871;SDS011;36154;51.674;7.824;2022-10-16T11:19:43;0.10;;;0.10;;
48871;SDS011;36154;51.674;7.824;2022-10-16T11:30:25;0.50;;;0.10;;
48871;SDS011;36154;51.674;7.824;2022-10-16T11:32:56;0.10;;;0.10;;
48871;SDS011;36154;51.674;7.824;2022-10-16T11:38:56;3.42;;;0.10;;
48871;SDS011;36154;51.674;7.824;2022-10-16T11:41:04;0.10;;;0.10;;
48871;SDS011;36154;51.674;7.824;2022-10-16T11:43:58;0.10;;;0.10;;
48871;SDS011;36154;51.674;7.824;2022-10-16T11:46:27;0.03;;;0.03;;
48871;SDS011;36154;51.674;7.824;2022-10-16T11:49:14;0.10;;;0.10;;
48871;SDS011;36154;51.674;7.824;2022-10-16T11:51:45;0.10;;;0.10;;
48871;SDS011;36154;51.674;7.824;2022-10-16T11:54:21;0.88;;;0.30;;
48871;SDS011;36154;51.674;7.824;2022-10-16T11:56:54;4.20;;;1.20;;
48871;SDS011;36154;51.674;7.824;2022-10-16T11:59:47;20.67;;;4.20;;
48871;SDS011;36154;51.674;7.824;2022-10-16T12:05:13;30.20;;;7.95;;
48871;SDS011;36154;51.674;7.824;2022-10-16T12:07:59;17.83;;;4.00;;
48871;SDS011;36154;51.674;7.824;2022-10-16T12:10:31;16.10;;;3.42;;
48871;SDS011;36154;51.674;7.824;2022-10-16T12:13:01;13.73;;;3.45;;
48871;SDS011;36154;51.674;7.824;2022-10-16T12:15:29;14.63;;;3.83;;
48871;SDS011;36154;51.674;7.824;2022-10-16T12:17:56;19.83;;;4.97;;
48871;SDS011;36154;51.674;7.824;2022-10-16T12:20:28;12.90;;;4.03;;
48871;SDS011;36154;51.674;7.824;2022-10-16T12:22:59;11.02;;;3.70;;
48871;SDS011;36154;51.674;7.824;2022-10-16T12:25:30;11.70;;;3.40;;
48871;SDS011;36154;51.674;7.824;2022-10-16T12:28:05;10.07;;;3.10;;
48871;SDS011;36154;51.674;7.824;2022-10-16T12:31:01;11.20;;;3.40;;
48871;SDS011;36154;51.674;7.824;2022-10-16T12:33:35;10.00;;;3.17;;
48871;SDS011;36154;51.674;7.824;2022-10-16T12:36:05;10.57;;;2.72;;
48871;SDS011;36154;51.674;7.824;2022-10-16T12:38:45;14.38;;;3.03;;
48871;SDS011;36154;51.674;7.824;2022-10-16T12:41:23;9.25;;;2.58;;
48871;SDS011;36154;51.674;7.824;2022-10-16T12:43:51;13.00;;;2.35;;
48871;SDS011;36154;51.674;7.824;2022-10-16T12:48:42;7.13;;;2.10;;
48871;SDS011;36154;51.674;7.824;2022-10-16T12:51:10;9.95;;;2.28;;
48871;SDS011;36154;51.674;7.824;2022-10-16T12:56:35;10.02;;;2.17;;
48871;SDS011;36154;51.674;7.824;2022-10-16T12:59:35;6.32;;;2.13;;
48871;SDS011;36154;51.674;7.824;2022-10-16T13:07:33;6.33;;;2.13;;
48871;SDS011;36154;51.674;7.824;2022-10-16T13:10:27;5.03;;;1.75;;
48871;SDS011;36154;51.674;7.824;2022-10-16T13:13:05;3.15;;;1.55;;
48871;SDS011;36154;51.674;7.824;2022-10-16T13:21:35;4.32;;;1.60;;
48871;SDS011;36154;51.674;7.824;2022-10-16T13:29:42;4.47;;;1.25;;
48871;SDS011;36154;51.674;7.824;2022-10-16T13:32:08;3.75;;;1.42;;
48871;SDS011;36154;51.674;7.824;2022-10-16T13:34:44;4.40;;;1.40;;
48871;SDS011;36154;51.674;7.824;2022-10-16T13:37:21;4.07;;;1.30;;
48871;SDS011;36154;51.674;7.824;2022-10-16T13:39:50;4.53;;;1.30;;
48871;SDS011;36154;51.674;7.824;2022-10-16T13:42:26;2.45;;;1.20;;
48871;SDS011;36154;51.674;7.824;2022-10-16T13:44:53;3.22;;;1.10;;
48871;SDS011;36154;51.674;7.824;2022-10-16T13:47:23;1.85;;;1.10;;
48871;SDS011;36154;51.674;7.824;2022-10-16T13:50:00;1.10;;;0.80;;
48871;SDS011;36154;51.674;7.824;2022-10-16T13:52:52;2.13;;;1.05;;
48871;SDS011;36154;51.674;7.824;2022-10-16T13:55:28;1.83;;;0.98;;
48871;SDS011;36154;51.674;7.824;2022-10-16T13:57:54;3.65;;;1.10;;
48871;SDS011;36154;51.674;7.824;2022-10-16T14:00:29;2.47;;;0.82;;
48871;SDS011;36154;51.674;7.824;2022-10-16T14:03:03;3.30;;;1.13;;
48871;SDS011;36154;51.674;7.824;2022-10-16T14:05:31;3.50;;;1.10;;
48871;SDS011;36154;51.674;7.824;2022-10-16T14:07:57;2.63;;;0.95;;
48871;SDS011;36154;51.674;7.824;2022-10-16T14:10:30;2.90;;;1.00;;
48871;SDS011;36154;51.674;7.824;2022-10-16T14:13:01;2.20;;;1.00;;
48871;SDS011;36154;51.674;7.824;2022-10-16T14:15:30;1.20;;;0.73;;
48871;SDS011;36154;51.674;7.824;2022-10-16T14:17:56;1.00;;;0.80;;
48871;SDS011;36154;51.674;7.824;2022-10-16T14:20:24;2.22;;;0.82;;
48871;SDS011;36154;51.674;7.824;2022-10-16T14:22:58;1.42;;;0.73;;
48871;SDS011;36154;51.674;7.824;2022-10-16T14:25:43;3.08;;;0.80;;
48871;SDS011;36154;51.674;7.824;2022-10-16T14:30:35;1.90;;;0.90;;
48871;SDS011;36154;51.674;7.824;2022-10-16T14:33:05;2.58;;;0.75;;
48871;SDS011;36154;51.674;7.824;2022-10-16T14:35:44;0.57;;;0.57;;
48871;SDS011;36154;51.674;7.824;2022-10-16T14:38:19;1.02;;;0.50;;
48871;SDS011;36154;51.674;7.824;2022-10-16T14:40:47;1.10;;;0.82;;
48871;SDS011;36154;51.674;7.824;2022-10-16T14:43:20;0.75;;;0.68;;
48871;SDS011;36154;51.674;7.824;2022-10-16T14:45:50;1.25;;;0.50;;
48871;SDS011;36154;51.674;7.824;2022-10-16T14:48:17;1.65;;;0.75;;
48871;SDS011;36154;51.674;7.824;2022-10-16T14:50:44;2.05;;;0.70;;
48871;SDS011;36154;51.674;7.824;2022-10-16T14:53:11;0.68;;;0.60;;
48871;SDS011;36154;51.674;7.824;2022-10-16T14:55:37;1.05;;;0.60;;
48871;SDS011;36154;51.674;7.824;2022-10-16T14:58:03;1.25;;;0.60;;
48871;SDS011;36154;51.674;7.824;2022-10-16T15:00:28;0.85;;;0.47;;
48871;SDS011;36154;51.674;7.824;2022-10-16T15:02:54;0.52;;;0.50;;
48871;SDS011;36154;51.674;7.824;2022-10-16T15:05:23;1.15;;;0.60;;
48871;SDS011;36154;51.674;7.824;2022-10-16T15:07:51;1.67;;;0.55;;
48871;SDS011;36154;51.674;7.824;2022-10-16T15:10:18;2.75;;;0.50;;
48871;SDS011;36154;51.674;7.824;2022-10-16T15:12:45;1.48;;;0.52;;
48871;SDS011;36154;51.674;7.824;2022-10-16T15:17:51;0.50;;;0.40;;
48871;SDS011;36154;51.674;7.824;2022-10-16T15:20:20;1.10;;;0.50;;
48871;SDS011;36154;51.674;7.824;2022-10-16T15:22:45;0.52;;;0.50;;
48871;SDS011;36154;51.674;7.824;2022-10-16T15:27:58;1.50;;;0.55;;
48871;SDS011;36154;51.674;7.824;2022-10-16T15:30:25;0.63;;;0.47;;
48871;SDS011;36154;51.674;7.824;2022-10-16T15:32:50;0.75;;;0.30;;
48871;SDS011;36154;51.674;7.824;2022-10-16T15:35:15;1.15;;;0.55;;
48871;SDS011;36154;51.674;7.824;2022-10-16T15:37:41;1.90;;;0.50;;
48871;SDS011;36154;51.674;7.824;2022-10-16T15:40:06;0.57;;;0.52;;
48871;SDS011;36154;51.674;7.824;2022-10-16T15:42:33;1.35;;;0.60;;
48871;SDS011;36154;51.674;7.824;2022-10-16T15:44:58;1.08;;;0.43;;
48871;SDS011;36154;51.674;7.824;2022-10-16T15:47:23;5.35;;;1.00;;
48871;SDS011;36154;51.674;7.824;2022-10-16T15:49:49;1.85;;;0.95;;
48871;SDS011;36154;51.674;7.824;2022-10-16T15:52:14;2.67;;;0.98;;
48871;SDS011;36154;51.674;7.824;2022-10-16T15:54:40;3.83;;;1.30;;
48871;SDS011;36154;51.674;7.824;2022-10-16T15:57:06;3.22;;;0.82;;
48871;SDS011;36154;51.674;7.824;2022-10-16T15:59:31;7.43;;;1.10;;
48871;SDS011;36154;51.674;7.824;2022-10-16T16:01:56;5.90;;;1.30;;
48871;SDS011;36154;51.674;7.824;2022-10-16T16:04:21;3.00;;;0.90;;
48871;SDS011;36154;51.674;7.824;2022-10-16T16:06:47;3.58;;;1.17;;
48871;SDS011;36154;51.674;7.824;2022-10-16T16:09:12;4.82;;;1.13;;
48871;SDS011;36154;51.674;7.824;2022-10-16T16:11:39;8.10;;;1.60;;
48871;SDS011;36154;51.674;7.824;2022-10-16T16:14:05;2.45;;;1.00;;
48871;SDS011;36154;51.674;7.824;2022-10-16T16:16:31;10.77;;;2.13;;
48871;SDS011;36154;51.674;7.824;2022-10-16T16:19:01;5.97;;;1.35;;
48871;SDS011;36154;51.674;7.824;2022-10-16T16:21:27;8.73;;;1.58;;
48871;SDS011;36154;51.674;7.824;2022-10-16T16:23:52;4.47;;;1.85;;
48871;SDS011;36154;51.674;7.824;2022-10-16T16:26:25;8.95;;;1.60;;
48871;SDS011;36154;51.674;7.824;2022-10-16T16:28:52;7.85;;;1.30;;
48871;SDS011;36154;51.674;7.824;2022-10-16T16:31:19;8.50;;;1.30;;
48871;SDS011;36154;51.674;7.824;2022-10-16T16:33:46;6.45;;;1.50;;
48871;SDS011;36154;51.674;7.824;2022-10-16T16:36:11;4.07;;;1.35;;
48871;SDS011;36154;51.674;7.824;2022-10-16T16:38:36;5.03;;;1.30;;
48871;SDS011;36154;51.674;7.824;2022-10-16T16:41:12;3.05;;;1.23;;
48871;SDS011;36154;51.674;7.824;2022-10-16T16:43:41;5.75;;;1.05;;
48871;SDS011;36154;51.674;7.824;2022-10-16T16:46:07;2.97;;;1.02;;
48871;SDS011;36154;51.674;7.824;2022-10-16T16:48:32;5.45;;;1.25;;
48871;SDS011;36154;51.674;7.824;2022-10-16T16:51:04;3.13;;;1.00;;
48871;SDS011;36154;51.674;7.824;2022-10-16T16:53:30;4.47;;;1.23;;
48871;SDS011;36154;51.674;7.824;2022-10-16T16:56:05;3.42;;;0.93;;
48871;SDS011;36154;51.674;7.824;2022-10-16T16:58:31;2.95;;;1.02;;
48871;SDS011;36154;51.674;7.824;2022-10-16T17:00:57;4.03;;;1.33;;
48871;SDS011;36154;51.674;7.824;2022-10-16T17:03:33;2.90;;;0.80;;